createdAt,value
2018-08-31T00:01:33.399Z,-73
2018-08-31T00:04:45.973Z,-73
2018-08-31T00:08:45.842Z,-71
2018-08-31T00:13:00.168Z,-72
2018-08-31T00:15:28.703Z,-72
2018-08-31T00:17:57.056Z,-72
2018-08-31T00:20:25.614Z,-74
2018-08-31T00:22:53.900Z,-73
2018-08-31T00:26:12.768Z,-73
2018-08-31T00:29:41.754Z,-73
2018-08-31T00:32:26.910Z,-74
2018-08-31T00:35:27.624Z,-75
2018-08-31T00:40:16.494Z,-73
2018-08-31T00:45:15.604Z,-72
2018-08-31T00:47:44.085Z,-73
2018-08-31T00:50:12.416Z,-75
2018-08-31T00:52:40.744Z,-73
2018-08-31T00:55:08.954Z,-73
2018-08-31T00:57:38.422Z,-74
2018-08-31T01:00:06.762Z,-73
2018-08-31T01:02:35.180Z,-73
2018-08-31T01:05:03.423Z,-72
2018-08-31T01:07:31.786Z,-73
2018-08-31T01:09:59.950Z,-72
2018-08-31T01:12:28.457Z,-72
2018-08-31T01:14:56.694Z,-73
2018-08-31T01:17:25.175Z,-73
2018-08-31T01:19:53.409Z,-73
2018-08-31T01:22:21.705Z,-73
2018-08-31T01:24:49.950Z,-73
2018-08-31T01:27:18.262Z,-74
2018-08-31T01:29:47.351Z,-74
2018-08-31T01:32:15.528Z,-73
2018-08-31T01:34:43.768Z,-74
2018-08-31T01:37:12.013Z,-74
2018-08-31T01:39:40.241Z,-73
2018-08-31T01:42:08.633Z,-72
2018-08-31T01:44:37.947Z,-74
2018-08-31T01:47:06.317Z,-74
2018-08-31T01:49:34.460Z,-75
2018-08-31T01:52:02.863Z,-74
2018-08-31T01:54:31.297Z,-74
2018-08-31T01:56:59.709Z,-73
2018-08-31T01:59:27.882Z,-73
2018-08-31T02:01:56.140Z,-74
2018-08-31T02:04:24.447Z,-72
2018-08-31T02:06:52.738Z,-73
2018-08-31T02:09:21.728Z,-73
2018-08-31T02:11:50.996Z,-75
2018-08-31T02:14:19.233Z,-74
2018-08-31T02:16:47.458Z,-74
2018-08-31T02:19:15.834Z,-76
2018-08-31T02:21:43.978Z,-75
2018-08-31T02:24:12.364Z,-73
2018-08-31T02:26:40.483Z,-74
2018-08-31T02:29:08.802Z,-73
2018-08-31T02:31:37.041Z,-74
2018-08-31T02:34:05.754Z,-71
2018-08-31T02:36:34.012Z,-71
2018-08-31T02:39:02.237Z,-72
2018-08-31T02:41:30.402Z,-73
2018-08-31T02:43:58.700Z,-72
2018-08-31T02:46:26.948Z,-72
2018-08-31T02:48:55.540Z,-70
2018-08-31T02:51:23.832Z,-74
2018-08-31T02:53:52.139Z,-72
2018-08-31T02:56:20.416Z,-73
2018-08-31T02:58:48.666Z,-72
2018-08-31T03:01:16.875Z,-72
2018-08-31T03:03:45.263Z,-73
2018-08-31T03:06:13.416Z,-71
2018-08-31T03:08:41.767Z,-71
2018-08-31T03:11:09.913Z,-73
2018-08-31T03:13:38.245Z,-70
2018-08-31T03:16:06.615Z,-73
2018-08-31T03:18:35.127Z,-75
2018-08-31T03:21:03.361Z,-74
2018-08-31T03:23:32.002Z,-73
2018-08-31T03:26:00.243Z,-73
2018-08-31T03:28:28.477Z,-72
2018-08-31T03:30:56.816Z,-72
2018-08-31T03:33:25.129Z,-73
2018-08-31T03:35:53.320Z,-72
2018-08-31T03:38:21.543Z,-72
2018-08-31T03:40:49.917Z,-76
2018-08-31T03:43:18.084Z,-73
2018-08-31T03:45:46.439Z,-73
2018-08-31T03:48:14.521Z,-72
2018-08-31T03:50:42.761Z,-73
2018-08-31T03:53:10.981Z,-73
2018-08-31T03:55:39.369Z,-73
2018-08-31T03:58:07.613Z,-73
2018-08-31T04:00:36.047Z,-73
2018-08-31T04:03:04.594Z,-72
2018-08-31T04:05:32.809Z,-72
2018-08-31T04:08:01.063Z,-74
2018-08-31T04:10:29.370Z,-74
2018-08-31T04:12:57.715Z,-72
2018-08-31T04:15:26.120Z,-72
2018-08-31T04:17:54.417Z,-72
2018-08-31T04:20:22.693Z,-72
2018-08-31T04:22:50.935Z,-74
2018-08-31T04:25:19.167Z,-73
2018-08-31T04:27:47.395Z,-74
2018-08-31T04:30:16.243Z,-73
2018-08-31T04:32:44.542Z,-74
2018-08-31T04:35:12.751Z,-75
2018-08-31T04:37:41.156Z,-72
2018-08-31T04:40:09.676Z,-75
2018-08-31T04:42:38.067Z,-74
2018-08-31T04:45:06.551Z,-73
2018-08-31T04:47:34.709Z,-74
2018-08-31T04:50:03.058Z,-73
2018-08-31T04:52:31.292Z,-72
2018-08-31T04:54:59.509Z,-68
2018-08-31T04:57:27.687Z,-68
2018-08-31T04:59:55.797Z,-67
2018-08-31T05:02:24.321Z,-68
2018-08-31T05:04:52.512Z,-69
2018-08-31T05:07:20.824Z,-68
2018-08-31T05:09:49.019Z,-68
2018-08-31T05:12:17.258Z,-69
2018-08-31T05:14:45.418Z,-71
2018-08-31T05:17:14.776Z,-68
2018-08-31T05:19:43.021Z,-68
2018-08-31T05:22:11.175Z,-69
2018-08-31T05:24:39.436Z,-68
2018-08-31T05:27:07.796Z,-69
2018-08-31T05:29:35.956Z,-69
2018-08-31T05:32:04.192Z,-70
2018-08-31T05:34:32.447Z,-79
2018-08-31T05:37:01.297Z,-79
2018-08-31T05:39:29.585Z,-77
2018-08-31T05:41:57.929Z,-77
2018-08-31T05:44:26.017Z,-76
2018-08-31T05:46:54.285Z,-79
2018-08-31T05:49:22.533Z,-80
2018-08-31T05:51:50.830Z,-79
2018-08-31T05:54:19.344Z,-80
2018-08-31T05:56:54.177Z,-81
2018-08-31T05:59:22.419Z,-82
2018-08-31T06:01:50.596Z,-80
2018-08-31T06:04:18.810Z,-80
2018-08-31T06:06:47.119Z,-80
2018-08-31T06:09:15.256Z,-80
2018-08-31T06:11:43.443Z,-82
2018-08-31T06:14:11.681Z,-80
2018-08-31T06:16:40.043Z,-81
2018-08-31T06:19:08.172Z,-79
2018-08-31T06:21:36.415Z,-81
2018-08-31T06:24:04.767Z,-81
2018-08-31T06:26:33.582Z,-81
2018-08-31T06:29:01.711Z,-79
2018-08-31T06:31:29.907Z,-80
2018-08-31T06:33:58.303Z,-80
2018-08-31T06:36:26.430Z,-82
2018-08-31T06:38:54.610Z,-81
2018-08-31T06:41:22.891Z,-79
2018-08-31T06:43:51.242Z,-82
2018-08-31T06:46:19.358Z,-82
2018-08-31T06:48:47.627Z,-81
2018-08-31T06:51:16.456Z,-81
2018-08-31T06:53:44.686Z,-80
2018-08-31T06:56:12.898Z,-82
2018-08-31T06:58:41.144Z,-80
2018-08-31T07:01:09.424Z,-79
2018-08-31T07:03:37.641Z,-80
2018-08-31T07:06:05.828Z,-80
2018-08-31T07:08:34.072Z,-81
2018-08-31T07:11:02.350Z,-80
2018-08-31T07:13:30.690Z,-80
2018-08-31T07:15:58.888Z,-79
2018-08-31T07:18:26.998Z,-79
2018-08-31T07:20:55.173Z,-80
2018-08-31T07:23:23.606Z,-78
2018-08-31T07:25:51.813Z,-80
2018-08-31T07:28:19.963Z,-82
2018-08-31T07:30:48.081Z,-80
2018-08-31T07:33:16.223Z,-79
2018-08-31T07:35:44.509Z,-78
2018-08-31T07:38:12.727Z,-81
2018-08-31T07:40:40.905Z,-80
2018-08-31T07:43:09.161Z,-80
2018-08-31T07:45:37.406Z,-79
2018-08-31T07:48:05.663Z,-80
2018-08-31T07:50:33.853Z,-81
2018-08-31T07:53:02.191Z,-81
2018-08-31T07:55:30.411Z,-79
2018-08-31T07:58:00.210Z,-79
2018-08-31T08:00:28.400Z,-78
2018-08-31T08:02:56.750Z,-80
2018-08-31T08:05:25.734Z,-79
2018-08-31T08:07:54.150Z,-80
2018-08-31T08:10:22.261Z,-80
2018-08-31T08:12:50.610Z,-79
2018-08-31T08:15:18.712Z,-78
2018-08-31T08:17:47.092Z,-79
2018-08-31T08:20:15.295Z,-78
2018-08-31T08:22:43.714Z,-79
2018-08-31T08:25:11.884Z,-79
2018-08-31T08:27:40.596Z,-78
2018-08-31T08:30:08.901Z,-80
2018-08-31T08:32:37.101Z,-80
2018-08-31T08:35:05.424Z,-79
2018-08-31T08:37:33.677Z,-80
2018-08-31T08:40:01.981Z,-80
2018-08-31T08:42:30.313Z,-79
2018-08-31T08:44:58.464Z,-81
2018-08-31T08:47:26.689Z,-79
2018-08-31T08:49:55.071Z,-79
2018-08-31T08:52:24.008Z,-79
2018-08-31T08:54:52.187Z,-79
2018-08-31T08:57:20.467Z,-79
2018-08-31T08:59:48.696Z,-79
2018-08-31T09:02:17.111Z,-79
2018-08-31T09:04:45.461Z,-78
2018-08-31T09:07:15.947Z,-79
2018-08-31T09:09:44.930Z,-83
2018-08-31T09:12:13.189Z,-80
2018-08-31T09:14:41.343Z,-80
2018-08-31T09:17:09.645Z,-79
2018-08-31T09:19:38.030Z,-81
2018-08-31T09:22:06.271Z,-79
2018-08-31T09:24:34.599Z,-79
2018-08-31T09:27:02.869Z,-79
2018-08-31T09:29:31.117Z,-79
2018-08-31T09:32:03.875Z,-79
2018-08-31T09:34:32.007Z,-80
2018-08-31T09:37:00.195Z,-79
2018-08-31T09:39:28.409Z,-79
2018-08-31T09:41:56.557Z,-80
2018-08-31T09:44:24.750Z,-80
2018-08-31T09:46:53.005Z,-80
2018-08-31T09:49:21.274Z,-78
2018-08-31T09:51:49.509Z,-81
2018-08-31T09:54:17.695Z,-79
2018-08-31T09:56:45.980Z,-79
2018-08-31T09:59:14.281Z,-79
2018-08-31T10:01:43.113Z,-81
2018-08-31T10:04:11.281Z,-80
2018-08-31T10:06:39.550Z,-80
2018-08-31T10:09:08.993Z,-79
2018-08-31T10:11:37.180Z,-79
2018-08-31T10:14:05.430Z,-79
2018-08-31T10:16:33.733Z,-79
2018-08-31T10:19:01.929Z,-80
2018-08-31T10:21:30.469Z,-80
2018-08-31T10:23:59.203Z,-77
2018-08-31T10:26:27.351Z,-79
2018-08-31T10:28:55.479Z,-79
2018-08-31T10:31:23.613Z,-78
2018-08-31T10:33:51.811Z,-77
2018-08-31T10:36:20.090Z,-80
2018-08-31T10:38:48.373Z,-79
2018-08-31T10:41:16.606Z,-79
2018-08-31T10:43:44.787Z,-72
2018-08-31T10:46:13.072Z,-72
2018-08-31T10:48:41.404Z,-71
2018-08-31T10:51:09.748Z,-72
2018-08-31T10:53:37.900Z,-72
2018-08-31T10:56:06.114Z,-72
2018-08-31T10:58:34.326Z,-71
2018-08-31T11:01:02.604Z,-71
2018-08-31T11:03:30.890Z,-71
2018-08-31T11:05:59.075Z,-72
2018-08-31T11:08:27.373Z,-71
2018-08-31T11:10:55.559Z,-73
2018-08-31T11:13:23.766Z,-71
2018-08-31T11:15:51.916Z,-72
2018-08-31T11:18:20.066Z,-72
2018-08-31T11:20:48.383Z,-72
2018-08-31T11:23:16.598Z,-72
2018-08-31T11:25:44.849Z,-71
2018-08-31T11:28:13.034Z,-70
2018-08-31T11:30:41.397Z,-72
2018-08-31T11:33:09.589Z,-72
2018-08-31T11:35:39.046Z,-72
2018-08-31T11:38:07.317Z,-71
2018-08-31T11:40:35.496Z,-71
2018-08-31T11:43:03.899Z,-71
2018-08-31T11:45:32.802Z,-70
2018-08-31T11:48:01.081Z,-71
2018-08-31T11:50:29.363Z,-71
2018-08-31T11:52:57.593Z,-73
2018-08-31T11:55:26.468Z,-71
2018-08-31T11:57:54.703Z,-71
2018-08-31T12:00:22.922Z,-72
2018-08-31T12:02:51.283Z,-73
2018-08-31T12:05:20.232Z,-73
2018-08-31T12:07:48.436Z,-72
2018-08-31T12:10:16.748Z,-72
2018-08-31T12:12:44.930Z,-74
2018-08-31T12:15:13.234Z,-72
2018-08-31T12:17:41.432Z,-72
2018-08-31T12:20:09.630Z,-71
2018-08-31T12:22:37.914Z,-73
2018-08-31T12:25:07.004Z,-71
2018-08-31T12:27:35.207Z,-71
2018-08-31T12:30:03.653Z,-72
2018-08-31T12:32:31.911Z,-73
2018-08-31T12:35:00.070Z,-75
2018-08-31T12:37:28.893Z,-71
2018-08-31T12:39:57.124Z,-72
2018-08-31T12:42:25.349Z,-71
2018-08-31T12:44:53.705Z,-74
2018-08-31T12:47:21.832Z,-73
2018-08-31T12:49:50.002Z,-73
2018-08-31T12:52:18.153Z,-73
2018-08-31T12:54:46.298Z,-74
2018-08-31T12:57:14.478Z,-72
2018-08-31T12:59:47.258Z,-72
2018-08-31T13:02:15.431Z,-72
2018-08-31T13:04:43.574Z,-72
2018-08-31T13:07:11.840Z,-72
2018-08-31T13:09:40.094Z,-71
2018-08-31T13:12:08.416Z,-71
2018-08-31T13:14:36.613Z,-72
2018-08-31T13:17:04.941Z,-73
2018-08-31T13:19:33.409Z,-72
2018-08-31T13:22:01.531Z,-72
2018-08-31T13:24:30.134Z,-72
2018-08-31T13:26:58.757Z,-72
2018-08-31T13:29:26.949Z,-71
2018-08-31T13:31:55.152Z,-72
2018-08-31T13:34:24.529Z,-73
2018-08-31T13:36:52.899Z,-71
2018-08-31T13:39:21.295Z,-71
2018-08-31T13:41:49.676Z,-74
2018-08-31T13:44:17.922Z,-72
2018-08-31T13:46:46.227Z,-71
2018-08-31T13:49:14.453Z,-72
2018-08-31T13:51:42.601Z,-71
2018-08-31T13:54:10.869Z,-73
2018-08-31T13:56:39.154Z,-72
2018-08-31T13:59:07.436Z,-72
2018-08-31T14:01:35.659Z,-72
2018-08-31T14:04:03.826Z,-71
2018-08-31T14:06:32.234Z,-73
2018-08-31T14:09:00.508Z,-72
2018-08-31T14:11:28.743Z,-72
2018-08-31T14:13:56.864Z,-73
2018-08-31T14:16:25.094Z,-73
2018-08-31T14:18:53.392Z,-73
2018-08-31T14:21:21.536Z,-73
2018-08-31T14:23:49.979Z,-72
2018-08-31T14:26:18.529Z,-72
2018-08-31T14:28:46.878Z,-71
2018-08-31T14:31:15.063Z,-73
2018-08-31T14:33:43.243Z,-72
2018-08-31T14:36:11.461Z,-73
2018-08-31T14:38:39.764Z,-72
2018-08-31T14:41:07.932Z,-72
2018-08-31T14:43:36.242Z,-73
2018-08-31T14:46:04.472Z,-72
2018-08-31T14:48:32.720Z,-70
2018-08-31T14:51:01.006Z,-72
2018-08-31T14:53:29.981Z,-73
2018-08-31T14:55:58.144Z,-73
2018-08-31T14:58:26.422Z,-70
2018-08-31T15:00:54.545Z,-71
2018-08-31T15:03:22.762Z,-72
2018-08-31T15:05:50.955Z,-71
2018-08-31T15:08:19.149Z,-72
2018-08-31T15:10:47.237Z,-72
2018-08-31T15:13:15.559Z,-72
2018-08-31T15:15:44.706Z,-73
2018-08-31T15:18:13.211Z,-73
2018-08-31T15:20:41.494Z,-71
2018-08-31T15:23:09.658Z,-72
2018-08-31T15:25:38.025Z,-72
2018-08-31T15:28:06.195Z,-73
2018-08-31T15:30:34.461Z,-72
2018-08-31T15:33:02.748Z,-73
2018-08-31T15:35:31.048Z,-71
2018-08-31T15:37:59.919Z,-72
2018-08-31T15:40:28.109Z,-72
2018-08-31T15:42:56.284Z,-70
2018-08-31T15:45:24.560Z,-70
2018-08-31T15:47:52.758Z,-72
2018-08-31T15:50:21.082Z,-74
2018-08-31T15:52:49.310Z,-72
2018-08-31T15:55:17.534Z,-73
2018-08-31T15:57:45.753Z,-72
2018-08-31T16:00:13.983Z,-72
2018-08-31T16:02:42.178Z,-72
2018-08-31T16:05:10.452Z,-71
2018-08-31T16:07:39.455Z,-74
2018-08-31T16:10:08.415Z,-72
2018-08-31T16:12:37.252Z,-72
2018-08-31T16:15:05.501Z,-72
2018-08-31T16:17:33.673Z,-71
2018-08-31T16:20:01.874Z,-71
2018-08-31T16:22:30.115Z,-73
2018-08-31T16:24:58.368Z,-72
2018-08-31T16:27:26.610Z,-72
2018-08-31T16:29:54.804Z,-72
2018-08-31T16:32:23.635Z,-72
2018-08-31T16:34:51.865Z,-71
2018-08-31T16:37:20.096Z,-71
2018-08-31T16:39:48.293Z,-74
2018-08-31T16:42:16.552Z,-72
2018-08-31T16:44:45.397Z,-72
2018-08-31T16:47:13.837Z,-73
2018-08-31T16:49:42.210Z,-74
2018-08-31T16:52:10.533Z,-73
2018-08-31T16:54:38.737Z,-72
2018-08-31T16:57:06.995Z,-73
2018-08-31T16:59:35.365Z,-72
2018-08-31T17:02:03.769Z,-73
2018-08-31T17:04:31.906Z,-72
2018-08-31T17:07:00.093Z,-74
2018-08-31T17:09:28.299Z,-72
2018-08-31T17:11:56.558Z,-71
2018-08-31T17:14:24.721Z,-72
2018-08-31T17:16:53.001Z,-72
2018-08-31T17:19:21.146Z,-72
2018-08-31T17:21:49.470Z,-72
2018-08-31T17:24:17.713Z,-71
2018-08-31T17:26:51.479Z,-71
2018-08-31T17:29:25.309Z,-73
2018-08-31T17:31:59.135Z,-71
2018-08-31T17:34:32.891Z,-71
2018-08-31T17:37:06.835Z,-72
2018-08-31T17:39:35.682Z,-71
2018-08-31T17:42:03.920Z,-70
2018-08-31T17:44:32.093Z,-73
2018-08-31T17:47:00.299Z,-71
2018-08-31T17:49:28.642Z,-73
2018-08-31T17:51:56.873Z,-72
2018-08-31T17:54:25.272Z,-74
2018-08-31T17:56:53.552Z,-73
2018-08-31T17:59:21.849Z,-74
2018-08-31T18:01:50.041Z,-74
2018-08-31T18:04:18.341Z,-74
2018-08-31T18:06:46.589Z,-73
2018-08-31T18:09:14.888Z,-74
2018-08-31T18:11:43.847Z,-74
2018-08-31T18:14:12.082Z,-73
2018-08-31T18:16:41.807Z,-70
2018-08-31T18:19:10.533Z,-71
2018-08-31T18:21:39.897Z,-72
2018-08-31T18:24:08.299Z,-75
2018-08-31T18:26:38.035Z,-74
2018-08-31T18:29:06.725Z,-74
2018-08-31T18:31:35.163Z,-72
2018-08-31T18:34:03.470Z,-72
2018-08-31T18:36:31.884Z,-75
2018-08-31T18:39:00.067Z,-75
2018-08-31T18:41:28.676Z,-72
2018-08-31T18:43:57.138Z,-74
2018-08-31T18:46:25.760Z,-74
2018-08-31T18:48:54.249Z,-74
2018-08-31T18:51:22.605Z,-73
2018-08-31T18:53:50.845Z,-72
2018-08-31T18:56:19.061Z,-74
2018-08-31T18:58:48.531Z,-74
2018-08-31T19:01:16.811Z,-74
2018-08-31T19:03:45.119Z,-74
2018-08-31T19:06:13.304Z,-74
2018-08-31T19:08:41.595Z,-74
2018-08-31T19:11:09.861Z,-74
2018-08-31T19:13:38.148Z,-75
2018-08-31T19:16:06.311Z,-75
2018-08-31T19:18:34.609Z,-74
2018-08-31T19:21:02.835Z,-75
2018-08-31T19:23:31.167Z,-72
2018-08-31T19:25:59.508Z,-75
2018-08-31T19:28:27.807Z,-73
2018-08-31T19:30:56.175Z,-74
2018-08-31T19:33:24.389Z,-74
2018-08-31T19:35:52.819Z,-73
2018-08-31T19:38:20.965Z,-75
2018-08-31T19:40:49.148Z,-76
2018-08-31T19:43:17.295Z,-73
2018-08-31T19:45:45.521Z,-75
2018-08-31T19:48:13.911Z,-73
2018-08-31T19:50:42.086Z,-74
2018-08-31T19:53:10.267Z,-75
2018-08-31T19:55:38.444Z,-74
2018-08-31T19:58:06.809Z,-74
2018-08-31T20:00:35.110Z,-75
2018-08-31T20:03:03.613Z,-75
2018-08-31T20:05:31.919Z,-75
2018-08-31T20:08:00.873Z,-77
2018-08-31T20:10:29.230Z,-75
2018-08-31T20:12:57.461Z,-75
2018-08-31T20:15:25.735Z,-74
2018-08-31T20:17:54.788Z,-75
2018-08-31T20:20:23.235Z,-75
2018-08-31T20:22:51.467Z,-75
2018-08-31T20:25:19.742Z,-75
2018-08-31T20:27:47.908Z,-74
2018-08-31T20:30:16.309Z,-75
2018-08-31T20:32:44.537Z,-75
2018-08-31T20:35:12.782Z,-74
2018-08-31T20:37:40.994Z,-75
2018-08-31T20:40:09.261Z,-75
2018-08-31T20:42:37.428Z,-76
2018-08-31T20:45:06.649Z,-73
2018-08-31T20:47:34.972Z,-75
2018-08-31T20:50:03.414Z,-75
2018-08-31T20:52:31.755Z,-73
2018-08-31T20:54:59.992Z,-74
2018-08-31T20:57:28.560Z,-75
2018-08-31T20:59:58.163Z,-75
2018-08-31T21:02:26.713Z,-75
2018-08-31T21:04:55.010Z,-71
2018-08-31T21:07:23.360Z,-74
2018-08-31T21:09:51.612Z,-76
2018-08-31T21:12:19.867Z,-74
2018-08-31T21:14:48.112Z,-76
2018-08-31T21:17:16.461Z,-74
2018-08-31T21:19:44.671Z,-75
2018-08-31T21:22:12.877Z,-75
2018-08-31T21:24:41.092Z,-74
2018-08-31T21:27:09.378Z,-76
2018-08-31T21:29:37.596Z,-75
2018-08-31T21:32:05.870Z,-76
2018-08-31T21:34:34.031Z,-74
2018-08-31T21:37:02.420Z,-75
2018-08-31T21:39:30.613Z,-72
2018-08-31T21:41:58.856Z,-75
2018-08-31T21:44:27.170Z,-74
2018-08-31T21:46:55.638Z,-76
2018-08-31T21:49:23.924Z,-74
2018-08-31T21:51:52.180Z,-75
2018-08-31T21:54:20.524Z,-74
2018-08-31T21:56:48.746Z,-75
2018-08-31T21:59:16.956Z,-74
2018-08-31T22:01:50.810Z,-75
2018-08-31T22:04:19.125Z,-72
2018-08-31T22:06:47.469Z,-74
2018-08-31T22:09:15.812Z,-74
2018-08-31T22:11:44.027Z,-75
2018-08-31T22:14:12.243Z,-73
2018-08-31T22:16:40.495Z,-76
2018-08-31T22:19:08.887Z,-74
2018-08-31T22:21:37.920Z,-74
2018-08-31T22:24:06.218Z,-75
2018-08-31T22:26:34.475Z,-77
2018-08-31T22:29:03.451Z,-78
2018-08-31T22:31:31.607Z,-79
2018-08-31T22:33:59.795Z,-77
2018-08-31T22:36:28.719Z,-79
2018-08-31T22:38:57.045Z,-77
2018-08-31T22:41:25.385Z,-77
2018-08-31T22:43:53.589Z,-76
2018-08-31T22:46:22.947Z,-77
2018-08-31T22:48:51.729Z,-77
2018-08-31T22:51:20.877Z,-78
2018-08-31T22:53:49.455Z,-79
2018-08-31T22:56:17.693Z,-79
2018-08-31T22:58:45.897Z,-78
2018-08-31T23:01:14.205Z,-79
2018-08-31T23:03:43.224Z,-78
2018-08-31T23:06:11.579Z,-78
2018-08-31T23:08:39.753Z,-76
2018-08-31T23:11:11.137Z,-77
2018-08-31T23:13:41.851Z,-76
2018-08-31T23:16:10.094Z,-74
2018-08-31T23:18:39.230Z,-75
2018-08-31T23:21:08.141Z,-74
2018-08-31T23:23:41.844Z,-74
2018-08-31T23:26:10.028Z,-74
2018-08-31T23:28:38.379Z,-75
2018-08-31T23:31:06.782Z,-74
2018-08-31T23:33:35.654Z,-77
2018-08-31T23:36:04.524Z,-76
2018-08-31T23:38:32.764Z,-75
2018-08-31T23:41:01.078Z,-77
2018-08-31T23:43:29.411Z,-76
2018-08-31T23:45:58.491Z,-79
2018-08-31T23:48:26.706Z,-75
2018-08-31T23:50:54.880Z,-76
2018-08-31T23:53:27.106Z,-76
2018-08-31T23:55:55.293Z,-77
2018-08-31T23:58:23.525Z,-75
